createdAt,value
2022-08-21T00:01:34.120Z,15.60
2022-08-21T00:04:00.751Z,15.60
2022-08-21T00:06:27.259Z,15.60
2022-08-21T00:08:53.937Z,15.60
2022-08-21T00:11:20.527Z,15.60
2022-08-21T00:13:47.085Z,15.60
2022-08-21T00:16:13.649Z,15.60
2022-08-21T00:18:40.236Z,15.60
2022-08-21T00:21:06.826Z,15.60
2022-08-21T00:23:33.394Z,15.60
2022-08-21T00:26:00.007Z,15.60
2022-08-21T00:28:26.518Z,15.70
2022-08-21T00:30:53.102Z,15.70
2022-08-21T00:33:19.653Z,15.70
2022-08-21T00:35:46.164Z,15.80
2022-08-21T00:38:12.704Z,15.80
2022-08-21T00:40:39.231Z,15.80
2022-08-21T00:43:05.823Z,15.80
2022-08-21T00:45:32.334Z,15.90
2022-08-21T00:47:58.877Z,15.90
2022-08-21T00:50:25.430Z,15.90
2022-08-21T00:52:51.935Z,15.90
2022-08-21T00:55:18.517Z,15.90
2022-08-21T00:57:45.071Z,16.00
2022-08-21T01:00:12.285Z,16.00
2022-08-21T01:02:38.879Z,16.00
2022-08-21T01:05:05.438Z,16.00
2022-08-21T01:07:31.994Z,16.00
2022-08-21T01:09:58.579Z,16.00
2022-08-21T01:12:25.166Z,16.00
2022-08-21T01:14:51.669Z,16.10
2022-08-21T01:17:18.209Z,16.10
2022-08-21T01:19:44.809Z,16.10
2022-08-21T01:22:11.370Z,16.10
2022-08-21T01:24:37.902Z,16.10
2022-08-21T01:27:04.457Z,16.10
2022-08-21T01:29:31.014Z,16.10
2022-08-21T01:31:57.615Z,16.10
2022-08-21T01:34:24.180Z,16.10
2022-08-21T01:36:50.751Z,16.10
2022-08-21T01:39:17.347Z,16.10
2022-08-21T01:41:43.922Z,16.10
2022-08-21T01:44:10.496Z,16.10
2022-08-21T01:46:37.115Z,16.10
2022-08-21T01:49:03.618Z,16.10
2022-08-21T01:51:30.175Z,16.20
2022-08-21T01:53:56.769Z,16.10
2022-08-21T01:56:23.279Z,16.10
2022-08-21T01:58:49.855Z,16.10
2022-08-21T02:01:16.489Z,16.10
2022-08-21T02:03:43.161Z,16.10
2022-08-21T02:06:09.668Z,16.10
2022-08-21T02:08:36.255Z,16.10
2022-08-21T02:11:02.833Z,16.10
2022-08-21T02:13:29.366Z,16.20
2022-08-21T02:15:55.954Z,16.20
2022-08-21T02:18:22.533Z,16.20
2022-08-21T02:20:49.158Z,16.20
2022-08-21T02:23:26.976Z,16.20
2022-08-21T02:25:53.667Z,16.20
2022-08-21T02:28:20.173Z,16.20
2022-08-21T02:30:46.795Z,16.20
2022-08-21T02:33:13.382Z,16.20
2022-08-21T02:35:39.958Z,16.20
2022-08-21T02:38:06.494Z,16.20
2022-08-21T02:40:33.142Z,16.20
2022-08-21T02:42:59.756Z,16.20
2022-08-21T02:45:26.346Z,16.20
2022-08-21T02:47:52.910Z,16.20
2022-08-21T02:50:19.490Z,16.20
2022-08-21T02:52:46.076Z,16.20
2022-08-21T02:55:18.347Z,16.20
2022-08-21T02:57:44.934Z,16.20
2022-08-21T03:00:11.509Z,16.20
2022-08-21T03:02:38.074Z,16.20
2022-08-21T03:05:04.690Z,16.20
2022-08-21T03:07:31.255Z,16.20
2022-08-21T03:09:57.837Z,16.20
2022-08-21T03:12:24.362Z,16.20
2022-08-21T03:14:53.150Z,16.20
2022-08-21T03:17:19.714Z,16.20
2022-08-21T03:19:56.567Z,16.20
2022-08-21T03:22:23.120Z,16.20
2022-08-21T03:24:49.630Z,16.20
2022-08-21T03:27:16.435Z,16.20
2022-08-21T03:29:43.034Z,16.20
2022-08-21T03:32:09.551Z,16.20
2022-08-21T03:34:36.111Z,16.20
2022-08-21T03:37:02.687Z,16.20
2022-08-21T03:39:29.257Z,16.20
2022-08-21T03:41:55.823Z,16.20
2022-08-21T03:44:22.427Z,16.20
2022-08-21T03:46:49.091Z,16.20
2022-08-21T03:49:15.594Z,16.20
2022-08-21T03:51:42.138Z,16.20
2022-08-21T03:54:08.757Z,16.20
2022-08-21T03:56:35.257Z,16.20
2022-08-21T03:59:01.830Z,16.20
2022-08-21T04:01:28.418Z,16.20
2022-08-21T04:03:55.134Z,16.20
2022-08-21T04:06:21.647Z,16.20
2022-08-21T04:08:48.191Z,16.20
2022-08-21T04:11:14.773Z,16.20
2022-08-21T04:13:44.643Z,16.20
2022-08-21T04:16:11.546Z,16.20
2022-08-21T04:18:38.049Z,16.20
2022-08-21T04:21:04.638Z,16.20
2022-08-21T04:23:31.514Z,16.20
2022-08-21T04:25:58.043Z,16.20
2022-08-21T04:28:28.865Z,16.20
2022-08-21T04:30:55.921Z,16.20
2022-08-21T04:33:22.491Z,16.20
2022-08-21T04:35:49.081Z,16.20
2022-08-21T04:38:15.653Z,16.20
2022-08-21T04:40:42.225Z,16.20
2022-08-21T04:43:08.816Z,16.20
2022-08-21T04:45:35.380Z,16.20
2022-08-21T04:48:01.887Z,16.20
2022-08-21T04:50:28.485Z,16.20
2022-08-21T04:52:55.154Z,16.20
2022-08-21T04:55:21.710Z,16.20
2022-08-21T04:57:49.257Z,16.20
2022-08-21T05:00:16.052Z,16.20
2022-08-21T05:02:42.590Z,16.20
2022-08-21T05:05:09.093Z,16.20
2022-08-21T05:07:42.743Z,16.20
2022-08-21T05:10:09.749Z,16.20
2022-08-21T05:12:36.270Z,16.20
2022-08-21T05:15:03.418Z,16.20
2022-08-21T05:17:30.020Z,16.20
2022-08-21T05:19:56.533Z,16.20
2022-08-21T05:22:23.045Z,16.20
2022-08-21T05:24:49.644Z,16.30
2022-08-21T05:27:17.810Z,16.30
2022-08-21T05:29:44.452Z,16.20
2022-08-21T05:32:11.082Z,16.20
2022-08-21T05:34:37.679Z,16.30
2022-08-21T05:37:07.503Z,16.30
2022-08-21T05:40:20.304Z,16.30
2022-08-21T05:42:21.193Z,16.30
2022-08-21T05:44:47.755Z,16.30
2022-08-21T05:47:15.366Z,16.30
2022-08-21T05:49:41.909Z,16.30
2022-08-21T05:52:08.472Z,16.30
2022-08-21T05:54:35.095Z,16.30
2022-08-21T05:57:01.642Z,16.40
2022-08-21T05:59:28.253Z,16.40
2022-08-21T06:01:54.843Z,16.40
2022-08-21T06:04:21.601Z,16.40
2022-08-21T06:06:48.146Z,16.40
2022-08-21T06:09:14.686Z,16.40
2022-08-21T06:11:41.237Z,16.40
2022-08-21T06:14:07.835Z,16.50
2022-08-21T06:16:34.345Z,16.40
2022-08-21T06:19:03.041Z,16.50
2022-08-21T06:21:29.906Z,16.50
2022-08-21T06:23:56.594Z,16.50
2022-08-21T06:26:23.123Z,16.50
2022-08-21T06:28:49.627Z,16.50
2022-08-21T06:31:16.179Z,16.50
2022-08-21T06:33:42.736Z,16.50
2022-08-21T06:36:10.617Z,16.60
2022-08-21T06:38:37.227Z,16.60
2022-08-21T06:41:05.841Z,16.60
2022-08-21T06:43:39.731Z,16.60
2022-08-21T06:46:06.693Z,16.60
2022-08-21T06:48:33.212Z,16.60
2022-08-21T06:50:59.714Z,16.70
2022-08-21T06:53:26.260Z,16.70
2022-08-21T06:55:52.761Z,16.70
2022-08-21T06:58:19.356Z,16.70
2022-08-21T07:00:45.917Z,16.70
2022-08-21T07:03:12.483Z,16.80
2022-08-21T07:05:39.025Z,16.70
2022-08-21T07:08:05.525Z,16.80
2022-08-21T07:10:32.156Z,16.80
2022-08-21T07:13:00.402Z,16.80
2022-08-21T07:15:27.958Z,16.80
2022-08-21T07:17:54.691Z,16.80
2022-08-21T07:20:21.203Z,16.80
2022-08-21T07:22:47.776Z,16.80
2022-08-21T07:25:14.421Z,16.80
2022-08-21T07:27:41.090Z,16.80
2022-08-21T07:30:07.593Z,16.90
2022-08-21T07:32:34.105Z,16.90
2022-08-21T07:35:00.661Z,16.90
2022-08-21T07:37:27.234Z,16.90
2022-08-21T07:39:53.848Z,17.00
2022-08-21T07:42:20.419Z,17.00
2022-08-21T07:44:46.993Z,17.00
2022-08-21T07:47:16.078Z,17.10
2022-08-21T07:50:02.613Z,17.10
2022-08-21T07:52:31.950Z,17.10
2022-08-21T07:55:00.787Z,17.10
2022-08-21T07:57:30.615Z,17.00
2022-08-21T07:59:57.182Z,17.00
2022-08-21T08:02:23.775Z,16.90
2022-08-21T08:04:50.886Z,16.90
2022-08-21T08:07:17.808Z,16.90
2022-08-21T08:09:44.410Z,16.90
2022-08-21T08:12:10.926Z,17.00
2022-08-21T08:14:37.485Z,16.90
2022-08-21T08:17:04.072Z,16.90
2022-08-21T08:19:31.242Z,16.90
2022-08-21T08:21:57.807Z,17.00
2022-08-21T08:24:24.376Z,16.90
2022-08-21T08:26:53.950Z,16.90
2022-08-21T08:29:20.725Z,16.90
2022-08-21T08:31:47.231Z,17.00
2022-08-21T08:34:23.631Z,17.00
2022-08-21T08:36:52.489Z,17.00
2022-08-21T08:39:26.656Z,17.10
2022-08-21T08:41:58.642Z,17.10
2022-08-21T08:44:25.358Z,17.10
2022-08-21T08:46:57.584Z,17.20
2022-08-21T08:49:24.155Z,17.20
2022-08-21T08:51:53.171Z,17.20
2022-08-21T08:54:19.947Z,17.20
2022-08-21T08:56:46.568Z,17.20
2022-08-21T08:59:13.135Z,17.20
2022-08-21T09:01:39.856Z,17.20
2022-08-21T09:04:06.499Z,17.30
2022-08-21T09:06:33.072Z,17.30
2022-08-21T09:08:59.622Z,17.30
2022-08-21T09:11:26.320Z,17.40
2022-08-21T09:13:52.827Z,17.40
2022-08-21T09:16:19.551Z,17.40
2022-08-21T09:18:46.098Z,17.40
2022-08-21T09:21:12.609Z,17.40
2022-08-21T09:23:39.163Z,17.50
2022-08-21T09:26:05.749Z,17.50
2022-08-21T09:28:32.315Z,17.50
2022-08-21T09:30:58.824Z,17.60
2022-08-21T09:33:25.474Z,17.60
2022-08-21T09:35:52.033Z,17.60
2022-08-21T09:38:18.699Z,17.70
2022-08-21T09:40:45.236Z,17.70
2022-08-21T09:43:11.810Z,17.70
2022-08-21T09:45:38.390Z,17.60
2022-08-21T09:48:04.971Z,17.60
2022-08-21T09:50:31.579Z,17.60
2022-08-21T09:52:58.287Z,17.40
2022-08-21T09:55:24.891Z,17.40
2022-08-21T09:57:51.495Z,17.40
2022-08-21T10:00:18.072Z,17.30
2022-08-21T10:02:44.584Z,17.20
2022-08-21T10:05:11.142Z,17.20
2022-08-21T10:07:37.712Z,17.20
2022-08-21T10:10:04.318Z,17.10
2022-08-21T10:12:30.902Z,17.10
2022-08-21T10:14:57.406Z,17.00
2022-08-21T10:17:23.970Z,17.00
2022-08-21T10:19:50.566Z,17.00
2022-08-21T10:22:17.171Z,16.90
2022-08-21T10:24:43.743Z,16.90
2022-08-21T10:27:12.129Z,16.90
2022-08-21T10:29:38.807Z,16.90
2022-08-21T10:32:05.415Z,16.90
2022-08-21T10:34:47.802Z,16.90
2022-08-21T10:37:14.406Z,16.90
2022-08-21T10:39:41.072Z,17.00
2022-08-21T10:42:07.685Z,17.10
2022-08-21T10:44:34.210Z,17.10
2022-08-21T10:47:00.770Z,17.10
2022-08-21T10:49:27.329Z,17.20
2022-08-21T10:51:53.962Z,17.20
2022-08-21T10:54:23.454Z,17.20
2022-08-21T10:56:50.230Z,17.20
2022-08-21T10:59:17.816Z,17.30
2022-08-21T11:01:44.377Z,17.30
2022-08-21T11:04:10.931Z,17.40
2022-08-21T11:06:37.526Z,17.40
2022-08-21T11:09:04.128Z,17.40
2022-08-21T11:11:33.867Z,17.40
2022-08-21T11:14:02.852Z,17.40
2022-08-21T11:16:29.408Z,17.50
2022-08-21T11:18:55.971Z,17.60
2022-08-21T11:21:22.636Z,17.60
2022-08-21T11:23:49.175Z,17.70
2022-08-21T11:26:15.699Z,17.80
2022-08-21T11:28:42.210Z,17.80
2022-08-21T11:31:08.775Z,17.90
2022-08-21T11:33:35.377Z,18.00
2022-08-21T11:36:01.937Z,18.10
2022-08-21T11:38:28.585Z,18.20
2022-08-21T11:40:57.595Z,18.20
2022-08-21T11:43:24.118Z,18.30
2022-08-21T11:45:50.676Z,18.30
2022-08-21T11:48:17.226Z,18.40
2022-08-21T11:50:43.740Z,18.50
2022-08-21T11:53:10.268Z,18.60
2022-08-21T11:55:36.869Z,18.60
2022-08-21T11:58:03.431Z,18.60
2022-08-21T12:00:29.931Z,18.70
2022-08-21T12:02:56.701Z,18.60
2022-08-21T12:05:23.253Z,18.70
2022-08-21T12:07:49.754Z,18.70
2022-08-21T12:10:16.357Z,18.70
2022-08-21T12:12:45.320Z,18.80
2022-08-21T12:15:11.905Z,18.90
2022-08-21T12:17:38.474Z,19.00
2022-08-21T12:20:05.017Z,19.10
2022-08-21T12:22:31.527Z,19.20
2022-08-21T12:24:58.154Z,19.30
2022-08-21T12:27:24.742Z,19.40
2022-08-21T12:29:51.237Z,19.30
2022-08-21T12:32:17.747Z,19.30
2022-08-21T12:34:44.266Z,19.30
2022-08-21T12:37:10.861Z,19.30
2022-08-21T12:39:37.512Z,19.30
2022-08-21T12:42:04.106Z,19.20
2022-08-21T12:44:30.681Z,19.20
2022-08-21T12:46:57.246Z,19.30
2022-08-21T12:49:26.757Z,19.30
2022-08-21T12:51:53.435Z,19.40
2022-08-21T12:54:22.561Z,19.40
2022-08-21T12:56:49.074Z,19.50
2022-08-21T12:59:15.661Z,19.70
2022-08-21T13:01:42.290Z,20.00
2022-08-21T13:04:08.928Z,20.20
2022-08-21T13:06:35.530Z,20.40
2022-08-21T13:09:02.128Z,20.60
2022-08-21T13:11:33.717Z,20.70
2022-08-21T13:14:05.102Z,20.60
2022-08-21T13:16:31.843Z,20.50
2022-08-21T13:18:58.549Z,20.40
2022-08-21T13:21:25.102Z,20.30
2022-08-21T13:23:51.613Z,20.30
2022-08-21T13:26:18.897Z,20.40
2022-08-21T13:28:45.538Z,20.40
2022-08-21T13:31:12.279Z,20.60
2022-08-21T13:33:38.877Z,20.70
2022-08-21T13:36:05.424Z,20.70
2022-08-21T13:38:31.985Z,20.70
2022-08-21T13:40:58.502Z,20.80
2022-08-21T13:43:25.096Z,20.80
2022-08-21T13:45:51.599Z,20.80
2022-08-21T13:48:18.101Z,20.80
2022-08-21T13:50:44.690Z,20.90
2022-08-21T13:53:11.261Z,21.00
2022-08-21T13:55:37.782Z,21.20
2022-08-21T13:58:04.366Z,21.60
2022-08-21T14:00:30.934Z,21.90
2022-08-21T14:02:57.668Z,22.00
2022-08-21T14:05:24.314Z,22.10
2022-08-21T14:07:50.870Z,22.20
2022-08-21T14:10:17.382Z,22.20
2022-08-21T14:12:43.919Z,22.10
2022-08-21T14:15:10.431Z,22.30
2022-08-21T14:17:36.940Z,22.70
2022-08-21T14:20:05.127Z,23.20
2022-08-21T14:22:31.714Z,23.80
2022-08-21T14:24:58.275Z,24.50
2022-08-21T14:27:24.871Z,25.00
2022-08-21T14:29:51.465Z,25.50
2022-08-21T14:32:24.743Z,25.80
2022-08-21T14:34:52.122Z,26.10
2022-08-21T14:37:18.692Z,26.40
2022-08-21T14:39:45.439Z,26.80
2022-08-21T14:42:12.043Z,27.20
2022-08-21T14:44:38.655Z,27.40
2022-08-21T14:47:05.191Z,27.40
2022-08-21T14:49:31.722Z,26.90
2022-08-21T14:51:58.901Z,26.30
2022-08-21T14:54:30.821Z,26.20
2022-08-21T14:56:58.342Z,26.40
2022-08-21T14:59:24.893Z,26.80
2022-08-21T15:01:51.550Z,27.20
2022-08-21T15:04:18.201Z,27.50
2022-08-21T15:06:44.751Z,27.80
2022-08-21T15:09:11.309Z,28.00
2022-08-21T15:11:42.399Z,28.00
2022-08-21T15:14:09.617Z,27.90
2022-08-21T15:16:36.158Z,27.50
2022-08-21T15:19:02.750Z,27.10
2022-08-21T15:21:29.323Z,27.00
2022-08-21T15:23:55.919Z,26.90
2022-08-21T15:26:22.494Z,26.60
2022-08-21T15:28:48.998Z,26.50
2022-08-21T15:31:15.629Z,26.10
2022-08-21T15:33:42.143Z,25.70
2022-08-21T15:36:08.649Z,25.60
2022-08-21T15:38:35.246Z,25.50
2022-08-21T15:41:01.801Z,25.30
2022-08-21T15:43:29.880Z,25.30
2022-08-21T15:45:57.050Z,25.20
2022-08-21T15:48:23.639Z,25.20
2022-08-21T15:50:50.140Z,25.10
2022-08-21T15:53:16.737Z,24.90
2022-08-21T15:55:43.245Z,24.80
2022-08-21T15:58:09.752Z,24.70
2022-08-21T16:00:36.323Z,24.50
2022-08-21T16:03:02.917Z,24.40
2022-08-21T16:05:29.435Z,24.30
2022-08-21T16:07:55.993Z,24.20
2022-08-21T16:10:24.229Z,24.20
2022-08-21T16:12:56.573Z,24.20
2022-08-21T16:15:23.169Z,24.10
2022-08-21T16:17:49.670Z,24.10
2022-08-21T16:20:16.172Z,24.10
2022-08-21T16:22:44.830Z,24.10
2022-08-21T16:25:11.640Z,24.00
2022-08-21T16:27:38.668Z,23.90
2022-08-21T16:30:06.780Z,23.70
2022-08-21T16:32:33.283Z,23.60
2022-08-21T16:34:59.781Z,23.40
2022-08-21T16:37:26.366Z,23.10
2022-08-21T16:39:53.054Z,22.80
2022-08-21T16:42:20.404Z,22.50
2022-08-21T16:44:49.412Z,22.20
2022-08-21T16:47:26.970Z,22.00
2022-08-21T16:49:53.888Z,21.80
2022-08-21T16:52:20.454Z,21.50
2022-08-21T16:54:46.974Z,21.30
2022-08-21T16:57:13.517Z,21.20
2022-08-21T16:59:40.071Z,21.00
2022-08-21T17:02:06.627Z,21.00
2022-08-21T17:04:33.146Z,20.90
2022-08-21T17:06:59.705Z,20.80
2022-08-21T17:09:26.284Z,20.70
2022-08-21T17:11:52.838Z,20.60
2022-08-21T17:14:19.384Z,20.50
2022-08-21T17:16:45.959Z,20.40
2022-08-21T17:19:12.506Z,20.30
2022-08-21T17:21:39.228Z,20.20
2022-08-21T17:24:05.740Z,20.20
2022-08-21T17:26:32.288Z,20.10
2022-08-21T17:28:58.804Z,20.00
2022-08-21T17:31:25.355Z,20.00
2022-08-21T17:33:54.036Z,20.00
2022-08-21T17:36:23.030Z,19.90
2022-08-21T17:38:49.605Z,19.90
2022-08-21T17:41:16.204Z,19.80
2022-08-21T17:43:42.824Z,19.80
2022-08-21T17:46:09.478Z,19.80
2022-08-21T17:48:36.066Z,19.70
2022-08-21T17:51:02.609Z,19.70
2022-08-21T17:53:29.128Z,19.60
2022-08-21T17:55:55.654Z,19.60
2022-08-21T17:58:22.211Z,19.50
2022-08-21T18:00:48.810Z,19.50
2022-08-21T18:03:15.333Z,19.40
2022-08-21T18:05:41.842Z,19.40
2022-08-21T18:08:08.379Z,19.30
2022-08-21T18:10:34.930Z,19.30
2022-08-21T18:13:01.534Z,19.30
2022-08-21T18:15:28.055Z,19.30
2022-08-21T18:17:54.595Z,19.20
2022-08-21T18:20:21.234Z,19.10
2022-08-21T18:22:47.817Z,19.00
2022-08-21T18:25:14.331Z,18.90
2022-08-21T18:27:40.884Z,18.90
2022-08-21T18:30:07.494Z,18.90
2022-08-21T18:32:34.057Z,18.90
2022-08-21T18:35:00.626Z,18.90
2022-08-21T18:37:27.175Z,18.80
2022-08-21T18:39:53.831Z,18.80
2022-08-21T18:42:20.419Z,18.80
2022-08-21T18:44:54.980Z,18.80
2022-08-21T18:47:22.540Z,18.70
2022-08-21T18:49:49.082Z,18.70
2022-08-21T18:52:20.466Z,18.60
2022-08-21T18:54:49.561Z,18.60
2022-08-21T18:57:16.816Z,18.60
2022-08-21T18:59:44.718Z,18.50
2022-08-21T19:02:11.610Z,18.40
2022-08-21T19:04:44.389Z,18.30
2022-08-21T19:07:11.408Z,18.30
2022-08-21T19:09:38.013Z,18.30
2022-08-21T19:12:04.596Z,18.20
2022-08-21T19:14:31.103Z,18.10
2022-08-21T19:16:57.615Z,18.10
2022-08-21T19:19:24.178Z,18.00
2022-08-21T19:21:50.687Z,18.00
2022-08-21T19:24:17.769Z,17.90
2022-08-21T19:27:03.820Z,17.90
2022-08-21T19:29:35.118Z,17.90
2022-08-21T19:32:01.908Z,17.90
2022-08-21T19:34:28.557Z,17.80
2022-08-21T19:36:55.123Z,17.80
2022-08-21T19:39:21.626Z,17.70
2022-08-21T19:41:50.631Z,17.70
2022-08-21T19:44:17.861Z,17.60
2022-08-21T19:46:45.952Z,17.60
2022-08-21T19:49:16.549Z,17.50
2022-08-21T19:51:43.112Z,17.50
2022-08-21T19:54:10.912Z,17.50
2022-08-21T19:56:37.569Z,17.40
2022-08-21T19:59:09.277Z,17.40
2022-08-21T20:01:36.098Z,17.40
2022-08-21T20:04:06.583Z,17.30
2022-08-21T20:06:37.271Z,17.30
2022-08-21T20:09:03.852Z,17.20
2022-08-21T20:11:34.855Z,17.20
2022-08-21T20:14:01.453Z,17.10
2022-08-21T20:16:28.025Z,17.10
2022-08-21T20:18:54.539Z,17.00
2022-08-21T20:21:21.114Z,17.00
2022-08-21T20:23:49.299Z,17.00
2022-08-21T20:26:15.985Z,17.00
2022-08-21T20:28:43.145Z,17.00
2022-08-21T20:31:09.790Z,17.00
2022-08-21T20:33:36.327Z,17.00
2022-08-21T20:36:02.830Z,17.00
2022-08-21T20:38:29.388Z,16.90
2022-08-21T20:40:55.932Z,16.90
2022-08-21T20:43:22.629Z,16.90
2022-08-21T20:45:49.209Z,16.90
2022-08-21T20:48:15.887Z,16.90
2022-08-21T20:50:42.457Z,16.90
2022-08-21T20:53:09.411Z,16.90
2022-08-21T20:55:35.959Z,16.80
2022-08-21T20:58:02.542Z,16.80
2022-08-21T21:00:29.098Z,16.80
2022-08-21T21:02:55.846Z,16.70
2022-08-21T21:05:22.464Z,16.70
2022-08-21T21:07:51.171Z,16.60
2022-08-21T21:10:17.771Z,16.60
2022-08-21T21:12:44.290Z,16.60
2022-08-21T21:15:14.431Z,16.60
2022-08-21T21:17:40.963Z,16.60
2022-08-21T21:20:07.518Z,16.60
2022-08-21T21:22:36.674Z,16.60
2022-08-21T21:25:03.278Z,16.60
2022-08-21T21:27:34.908Z,16.60
2022-08-21T21:30:01.672Z,16.60
2022-08-21T21:32:28.454Z,16.50
2022-08-21T21:34:55.028Z,16.50
2022-08-21T21:37:25.405Z,16.50
2022-08-21T21:39:52.323Z,16.50
2022-08-21T21:42:19.004Z,16.40
2022-08-21T21:44:56.989Z,16.40
2022-08-21T21:47:23.580Z,16.40
2022-08-21T21:49:50.692Z,16.30
2022-08-21T21:52:17.223Z,16.30
2022-08-21T21:54:43.942Z,16.30
2022-08-21T21:57:10.763Z,16.30
2022-08-21T21:59:37.348Z,16.30
2022-08-21T22:02:06.230Z,16.30
2022-08-21T22:04:32.798Z,16.30
2022-08-21T22:07:00.057Z,16.30
2022-08-21T22:09:26.757Z,16.30
2022-08-21T22:11:56.177Z,16.30
2022-08-21T22:14:22.907Z,16.30
2022-08-21T22:16:49.483Z,16.30
2022-08-21T22:19:16.029Z,16.20
2022-08-21T22:21:43.880Z,16.20
2022-08-21T22:24:11.539Z,16.20
2022-08-21T22:26:38.384Z,16.20
2022-08-21T22:29:05.677Z,16.20
2022-08-21T22:31:33.318Z,16.20
2022-08-21T22:33:59.831Z,16.10
2022-08-21T22:36:26.394Z,16.10
2022-08-21T22:38:53.282Z,16.10
2022-08-21T22:41:19.959Z,16.10
2022-08-21T22:43:46.885Z,16.10
2022-08-21T22:46:13.986Z,16.10
2022-08-21T22:48:45.260Z,16.10
2022-08-21T22:51:13.152Z,16.00
2022-08-21T22:53:39.707Z,16.00
2022-08-21T22:56:06.220Z,16.00
2022-08-21T22:58:32.806Z,16.00
2022-08-21T23:00:59.304Z,16.00
2022-08-21T23:03:25.928Z,15.90
2022-08-21T23:05:57.035Z,15.90
2022-08-21T23:08:24.304Z,15.90
2022-08-21T23:10:51.239Z,15.90
2022-08-21T23:16:04.355Z,15.80
2022-08-21T23:18:30.953Z,15.80
2022-08-21T23:20:57.633Z,15.80
2022-08-21T23:23:24.187Z,15.80
2022-08-21T23:25:53.465Z,15.80
2022-08-21T23:28:20.017Z,15.80
2022-08-21T23:30:46.772Z,15.80
2022-08-21T23:33:15.047Z,15.80
2022-08-21T23:35:41.606Z,15.80
2022-08-21T23:38:09.323Z,15.80
2022-08-21T23:40:36.051Z,15.70
2022-08-21T23:43:03.003Z,15.70
2022-08-21T23:45:33.014Z,15.80
2022-08-21T23:47:59.778Z,15.70
2022-08-21T23:50:26.341Z,15.70
2022-08-21T23:52:52.896Z,15.70
2022-08-21T23:55:19.431Z,15.70
2022-08-21T23:57:45.994Z,15.70
